createdAt,value
2022-08-09T00:00:08.084Z,21.30
2022-08-09T00:02:47.300Z,21.30
2022-08-09T00:06:17.933Z,21.30
2022-08-09T00:08:04.093Z,21.20
2022-08-09T00:10:37.801Z,21.20
2022-08-09T00:13:16.767Z,21.20
2022-08-09T00:15:59.424Z,21.20
2022-08-09T00:18:34.841Z,21.10
2022-08-09T00:21:08.461Z,21.20
2022-08-09T00:23:56.010Z,21.20
2022-08-09T00:26:29.907Z,21.10
2022-08-09T00:29:00.416Z,21.00
2022-08-09T00:31:57.141Z,21.00
2022-08-09T00:34:14.035Z,20.90
2022-08-09T00:36:42.083Z,20.80
2022-08-09T00:39:17.038Z,20.80
2022-08-09T00:44:10.516Z,20.80
2022-08-09T00:44:43.127Z,20.80
2022-08-09T00:47:15.578Z,20.80
2022-08-09T00:49:43.736Z,20.80
2022-08-09T00:52:19.589Z,20.80
2022-08-09T00:54:48.569Z,20.80
2022-08-09T00:57:24.691Z,20.80
2022-08-09T01:00:05.180Z,20.80
2022-08-09T01:02:33.890Z,20.80
2022-08-09T01:05:05.356Z,20.80
2022-08-09T01:07:59.628Z,20.70
2022-08-09T01:10:31.891Z,20.70
2022-08-09T01:13:16.908Z,20.60
2022-08-09T01:15:52.456Z,20.60
2022-08-09T01:18:29.894Z,20.60
2022-08-09T01:21:09.986Z,20.60
2022-08-09T01:24:02.743Z,20.50
2022-08-09T01:26:42.363Z,20.50
2022-08-09T01:29:15.485Z,20.50
2022-08-09T01:32:32.580Z,20.50
2022-08-09T01:34:31.665Z,20.40
2022-08-09T01:37:00.507Z,20.40
2022-08-09T01:39:28.426Z,20.40
2022-08-09T01:42:02.189Z,20.40
2022-08-09T01:44:31.537Z,20.30
2022-08-09T01:46:59.944Z,20.30
2022-08-09T01:49:28.074Z,20.30
2022-08-09T01:52:07.865Z,20.30
2022-08-09T01:54:47.474Z,20.30
2022-08-09T01:57:20.643Z,20.30
2022-08-09T01:59:51.510Z,20.30
2022-08-09T02:02:20.973Z,20.30
2022-08-09T02:04:49.552Z,20.30
2022-08-09T02:08:41.401Z,20.40
2022-08-09T02:10:07.614Z,20.40
2022-08-09T02:12:35.361Z,20.40
2022-08-09T02:15:02.912Z,20.50
2022-08-09T02:18:01.595Z,20.40
2022-08-09T02:20:26.208Z,20.50
2022-08-09T02:23:03.634Z,20.50
2022-08-09T02:25:42.182Z,20.40
2022-08-09T02:28:13.179Z,20.50
2022-08-09T02:30:49.581Z,20.50
2022-08-09T02:33:20.305Z,20.50
2022-08-09T02:36:02.826Z,20.50
2022-08-09T02:38:36.214Z,20.50
2022-08-09T02:41:06.469Z,20.60
2022-08-09T02:43:42.572Z,20.70
2022-08-09T02:46:22.786Z,20.70
2022-08-09T02:48:51.561Z,20.80
2022-08-09T02:51:20.638Z,20.90
2022-08-09T02:53:52.988Z,20.90
2022-08-09T02:56:28.168Z,21.00
2022-08-09T02:58:55.697Z,21.00
2022-08-09T03:01:29.548Z,21.00
2022-08-09T03:04:16.710Z,21.10
2022-08-09T03:06:46.637Z,21.10
2022-08-09T03:09:16.486Z,21.10
2022-08-09T03:12:09.660Z,21.20
2022-08-09T03:14:32.034Z,21.20
2022-08-09T03:16:59.840Z,21.30
2022-08-09T03:19:52.769Z,21.40
2022-08-09T03:22:25.101Z,21.50
2022-08-09T03:25:21.890Z,21.50
2022-08-09T03:27:51.962Z,21.60
2022-08-09T03:30:30.235Z,21.60
2022-08-09T03:33:05.553Z,21.60
2022-08-09T03:36:11.345Z,21.70
2022-08-09T03:38:28.841Z,21.70
2022-08-09T03:40:56.368Z,21.70
2022-08-09T03:43:23.050Z,21.80
2022-08-09T03:46:04.648Z,21.80
2022-08-09T03:48:50.979Z,21.90
2022-08-09T03:51:55.267Z,21.90
2022-08-09T03:54:04.869Z,21.90
2022-08-09T03:56:37.778Z,22.00
2022-08-09T03:59:17.074Z,22.00
2022-08-09T04:01:48.977Z,22.10
2022-08-09T04:04:16.398Z,22.10
2022-08-09T04:06:44.045Z,22.10
2022-08-09T04:09:48.234Z,22.10
2022-08-09T04:12:11.959Z,22.10
2022-08-09T04:15:02.412Z,22.20
2022-08-09T04:17:39.309Z,22.20
2022-08-09T04:20:09.919Z,22.20
2022-08-09T04:22:37.371Z,22.20
2022-08-09T04:25:09.027Z,22.20
2022-08-09T04:27:41.087Z,22.20
2022-08-09T04:30:11.930Z,22.20
2022-08-09T04:32:40.455Z,22.20
2022-08-09T04:35:13.665Z,22.20
2022-08-09T04:37:46.162Z,22.10
2022-08-09T04:40:28.460Z,22.20
2022-08-09T04:43:01.113Z,22.30
2022-08-09T04:45:30.683Z,22.30
2022-08-09T04:48:04.021Z,22.30
2022-08-09T04:50:37.636Z,22.30
2022-08-09T04:53:13.153Z,22.30
2022-08-09T04:55:58.200Z,22.30
2022-08-09T04:58:26.768Z,22.30
2022-08-09T05:00:54.238Z,22.30
2022-08-09T05:03:40.255Z,22.40
2022-08-09T05:06:21.802Z,22.30
2022-08-09T05:08:59.918Z,22.20
2022-08-09T05:11:30.443Z,22.20
2022-08-09T05:13:59.479Z,22.20
2022-08-09T05:16:31.856Z,22.20
2022-08-09T05:19:00.202Z,22.10
2022-08-09T05:21:30.082Z,22.10
2022-08-09T05:24:01.411Z,22.20
2022-08-09T05:26:45.468Z,22.20
2022-08-09T05:29:22.055Z,22.20
2022-08-09T05:31:56.918Z,22.30
2022-08-09T05:34:30.162Z,22.30
2022-08-09T05:37:05.179Z,22.40
2022-08-09T05:39:42.494Z,22.40
2022-08-09T05:42:17.540Z,22.50
2022-08-09T05:44:52.344Z,22.60
2022-08-09T05:47:21.438Z,22.70
2022-08-09T05:50:31.204Z,22.70
2022-08-09T05:52:35.897Z,22.80
2022-08-09T05:55:07.189Z,22.80
2022-08-09T05:57:51.046Z,22.90
2022-08-09T06:00:22.579Z,23.00
2022-08-09T06:02:49.450Z,23.00
2022-08-09T06:05:31.125Z,23.10
2022-08-09T06:08:09.257Z,23.30
2022-08-09T06:10:38.175Z,23.40
2022-08-09T06:13:12.508Z,23.50
2022-08-09T06:15:46.906Z,23.70
2022-08-09T06:18:14.113Z,23.80
2022-08-09T06:20:42.766Z,23.80
2022-08-09T06:23:11.984Z,23.90
2022-08-09T06:25:43.259Z,23.90
2022-08-09T06:28:10.155Z,24.00
2022-08-09T06:30:40.516Z,24.00
2022-08-09T06:33:30.358Z,24.00
2022-08-09T06:35:58.408Z,24.10
2022-08-09T06:38:32.245Z,24.10
2022-08-09T06:41:09.358Z,24.10
2022-08-09T06:43:46.250Z,24.10
2022-08-09T06:46:39.045Z,24.10
2022-08-09T06:49:00.287Z,24.20
2022-08-09T06:51:27.251Z,24.20
2022-08-09T06:53:55.217Z,24.30
2022-08-09T06:56:23.684Z,24.40
2022-08-09T07:00:55.745Z,24.40
2022-08-09T07:01:59.503Z,24.40
2022-08-09T07:04:30.900Z,24.50
2022-08-09T07:07:00.728Z,24.60
2022-08-09T07:09:56.469Z,24.70
2022-08-09T07:12:17.923Z,24.70
2022-08-09T07:14:50.757Z,24.80
2022-08-09T07:17:19.224Z,24.80
2022-08-09T07:19:48.148Z,24.90
2022-08-09T07:22:18.072Z,25.00
2022-08-09T07:24:49.666Z,25.10
2022-08-09T07:27:26.827Z,25.20
2022-08-09T07:30:02.243Z,25.20
2022-08-09T07:32:32.089Z,25.30
2022-08-09T07:35:02.733Z,25.40
2022-08-09T07:37:42.778Z,25.50
2022-08-09T07:40:16.727Z,25.60
2022-08-09T07:42:48.676Z,25.80
2022-08-09T07:45:23.076Z,25.90
2022-08-09T07:48:04.635Z,26.00
2022-08-09T07:50:34.603Z,26.20
2022-08-09T07:53:04.653Z,26.30
2022-08-09T07:55:41.240Z,26.40
2022-08-09T07:58:19.071Z,26.50
2022-08-09T08:00:55.745Z,26.70
2022-08-09T08:03:26.765Z,26.80
2022-08-09T08:05:57.707Z,26.80
2022-08-09T08:09:02.688Z,27.00
2022-08-09T08:12:10.858Z,27.10
2022-08-09T08:13:58.566Z,27.10
2022-08-09T08:16:29.852Z,27.10
2022-08-09T08:18:58.888Z,27.20
2022-08-09T08:21:26.665Z,27.30
2022-08-09T08:23:56.014Z,27.50
2022-08-09T08:26:42.199Z,27.60
2022-08-09T08:29:10.022Z,27.70
2022-08-09T08:32:03.014Z,27.90
2022-08-09T08:34:25.638Z,28.00
2022-08-09T08:36:52.446Z,28.10
2022-08-09T08:39:19.221Z,28.10
2022-08-09T08:41:51.404Z,28.20
2022-08-09T08:44:23.123Z,28.20
2022-08-09T08:47:00.082Z,28.20
2022-08-09T08:49:38.406Z,28.30
2022-08-09T08:52:29.602Z,28.30
2022-08-09T08:55:03.697Z,28.40
2022-08-09T08:57:35.244Z,28.60
2022-08-09T09:00:02.469Z,28.70
2022-08-09T09:02:35.893Z,28.60
2022-08-09T09:05:10.145Z,28.50
2022-08-09T09:07:42.735Z,28.50
2022-08-09T09:10:11.482Z,28.60
2022-08-09T09:12:38.497Z,28.70
2022-08-09T09:15:07.143Z,28.80
2022-08-09T09:17:48.620Z,28.90
2022-08-09T09:20:21.180Z,29.10
2022-08-09T09:22:56.168Z,29.10
2022-08-09T09:26:01.442Z,29.10
2022-08-09T09:29:01.886Z,29.30
2022-08-09T09:32:06.052Z,29.50
2022-08-09T09:34:14.194Z,29.70
2022-08-09T09:36:50.910Z,29.70
2022-08-09T09:39:23.317Z,29.80
2022-08-09T09:41:50.937Z,29.90
2022-08-09T09:44:27.849Z,30.00
2022-08-09T09:47:06.484Z,30.10
2022-08-09T09:50:07.337Z,30.10
2022-08-09T09:52:36.528Z,30.20
2022-08-09T09:55:16.165Z,30.00
2022-08-09T09:58:04.373Z,30.00
2022-08-09T10:00:53.827Z,30.00
2022-08-09T10:03:43.861Z,30.20
2022-08-09T10:06:12.837Z,30.40
2022-08-09T10:08:43.164Z,30.50
2022-08-09T10:14:30.781Z,30.50
2022-08-09T10:17:17.662Z,30.70
2022-08-09T10:19:46.950Z,30.90
2022-08-09T10:22:29.324Z,31.00
2022-08-09T10:24:58.439Z,31.20
2022-08-09T10:27:34.509Z,31.20
2022-08-09T10:30:50.634Z,31.40
2022-08-09T10:32:56.090Z,31.40
2022-08-09T10:35:23.280Z,31.50
2022-08-09T10:37:53.277Z,31.60
2022-08-09T10:40:35.188Z,31.60
2022-08-09T10:43:05.432Z,31.60
2022-08-09T10:45:49.305Z,31.60
2022-08-09T10:48:30.437Z,31.70
2022-08-09T10:51:14.843Z,31.90
2022-08-09T10:53:54.709Z,32.00
2022-08-09T10:56:23.399Z,32.00
2022-08-09T10:58:54.307Z,32.10
2022-08-09T11:03:06.856Z,32.10
2022-08-09T11:04:29.783Z,32.20
2022-08-09T11:06:58.016Z,32.10
2022-08-09T11:09:41.031Z,32.10
2022-08-09T11:12:09.982Z,32.20
2022-08-09T11:14:38.333Z,32.30
2022-08-09T11:17:14.212Z,32.50
2022-08-09T11:20:11.700Z,32.60
2022-08-09T11:22:45.273Z,32.80
2022-08-09T11:25:15.774Z,32.80
2022-08-09T11:28:02.323Z,32.60
2022-08-09T11:30:35.617Z,32.40
2022-08-09T11:33:19.147Z,32.10
2022-08-09T11:35:59.453Z,31.80
2022-08-09T11:38:34.071Z,31.90
2022-08-09T11:41:22.542Z,32.10
2022-08-09T11:43:49.665Z,32.40
2022-08-09T11:46:26.652Z,32.70
2022-08-09T11:49:05.360Z,32.90
2022-08-09T11:53:02.756Z,33.00
2022-08-09T11:54:39.933Z,33.10
2022-08-09T11:57:56.434Z,33.10
2022-08-09T12:00:28.150Z,33.10
2022-08-09T12:02:57.385Z,32.80
2022-08-09T12:05:39.604Z,32.60
2022-08-09T12:08:12.112Z,32.30
2022-08-09T12:10:44.068Z,32.50
2022-08-09T12:14:08.011Z,32.50
2022-08-09T12:16:30.349Z,32.70
2022-08-09T12:19:05.626Z,33.00
2022-08-09T12:21:38.654Z,32.90
2022-08-09T12:24:09.090Z,32.80
2022-08-09T12:29:14.324Z,32.70
2022-08-09T12:29:52.635Z,32.70
2022-08-09T12:32:27.578Z,33.10
2022-08-09T12:34:59.433Z,33.20
2022-08-09T12:37:49.897Z,33.30
2022-08-09T12:40:20.437Z,33.60
2022-08-09T12:42:50.441Z,33.80
2022-08-09T12:45:33.450Z,33.80
2022-08-09T12:48:02.785Z,33.80
2022-08-09T12:50:29.529Z,33.90
2022-08-09T12:53:08.841Z,33.80
2022-08-09T12:56:15.950Z,33.80
2022-08-09T12:58:30.674Z,34.10
2022-08-09T13:00:58.950Z,34.20
2022-08-09T13:03:53.470Z,34.30
2022-08-09T13:06:34.944Z,34.20
2022-08-09T13:09:06.343Z,34.40
2022-08-09T13:11:34.164Z,34.50
2022-08-09T13:14:41.457Z,34.60
2022-08-09T13:16:50.820Z,34.80
2022-08-09T13:20:09.040Z,34.90
2022-08-09T13:22:45.600Z,34.80
2022-08-09T13:25:12.080Z,34.70
2022-08-09T13:27:54.361Z,34.70
2022-08-09T13:30:50.005Z,34.80
2022-08-09T13:33:11.648Z,34.90
2022-08-09T13:36:37.373Z,35.00
2022-08-09T13:38:55.719Z,35.00
2022-08-09T13:41:54.738Z,35.00
2022-08-09T13:43:59.202Z,35.10
2022-08-09T13:47:16.012Z,35.30
2022-08-09T13:49:18.463Z,35.40
2022-08-09T13:51:58.710Z,35.50
2022-08-09T13:54:30.222Z,35.70
2022-08-09T13:56:57.391Z,35.70
2022-08-09T13:59:25.722Z,35.60
2022-08-09T14:02:04.852Z,35.60
2022-08-09T14:04:31.729Z,35.50
2022-08-09T14:07:00.198Z,35.30
2022-08-09T14:09:30.996Z,35.10
2022-08-09T14:12:01.842Z,35.10
2022-08-09T14:14:35.073Z,35.20
2022-08-09T14:17:02.009Z,35.40
2022-08-09T14:19:32.451Z,35.20
2022-08-09T14:22:00.721Z,35.20
2022-08-09T14:24:32.530Z,35.20
2022-08-09T14:27:01.299Z,35.30
2022-08-09T14:30:33.990Z,35.40
2022-08-09T14:32:16.295Z,35.20
2022-08-09T14:34:46.786Z,35.00
2022-08-09T14:37:28.565Z,34.90
2022-08-09T14:39:55.534Z,34.80
2022-08-09T14:42:30.275Z,34.60
2022-08-09T14:44:59.386Z,34.80
2022-08-09T14:47:44.909Z,34.70
2022-08-09T14:50:14.399Z,34.70
2022-08-09T14:52:43.387Z,35.10
2022-08-09T14:55:14.639Z,35.40
2022-08-09T14:57:47.344Z,35.60
2022-08-09T15:00:16.007Z,35.80
2022-08-09T15:02:42.815Z,35.80
2022-08-09T15:05:16.243Z,35.80
2022-08-09T15:07:45.592Z,35.80
2022-08-09T15:10:24.911Z,35.80
2022-08-09T15:12:54.754Z,35.80
2022-08-09T15:15:22.288Z,35.80
2022-08-09T15:17:52.440Z,35.90
2022-08-09T15:21:55.328Z,36.00
2022-08-09T15:24:01.905Z,35.90
2022-08-09T15:25:54.214Z,35.60
2022-08-09T15:28:27.362Z,35.60
2022-08-09T15:31:01.789Z,35.80
2022-08-09T15:34:32.803Z,35.80
2022-08-09T15:36:23.393Z,35.70
2022-08-09T15:38:56.596Z,35.60
2022-08-09T15:41:23.312Z,35.60
2022-08-09T15:44:02.360Z,35.60
2022-08-09T15:46:33.744Z,35.60
2022-08-09T15:49:21.882Z,35.60
2022-08-09T15:52:04.630Z,35.60
2022-08-09T15:54:49.010Z,35.40
2022-08-09T15:57:35.873Z,35.20
2022-08-09T16:00:09.632Z,35.20
2022-08-09T16:02:41.177Z,35.30
2022-08-09T16:05:11.290Z,35.30
2022-08-09T16:07:45.748Z,35.40
2022-08-09T16:10:38.650Z,35.40
2022-08-09T16:13:00.359Z,35.40
2022-08-09T16:16:04.504Z,35.30
2022-08-09T16:18:14.723Z,35.20
2022-08-09T16:20:41.631Z,35.10
2022-08-09T16:23:11.441Z,35.20
2022-08-09T16:25:40.708Z,35.20
2022-08-09T16:28:07.827Z,35.30
2022-08-09T16:30:44.301Z,35.30
2022-08-09T16:33:12.095Z,35.40
2022-08-09T16:35:57.582Z,35.50
2022-08-09T16:38:26.763Z,35.60
2022-08-09T16:40:53.528Z,35.50
2022-08-09T16:43:22.310Z,35.30
2022-08-09T16:45:53.619Z,35.10
2022-08-09T16:48:41.797Z,35.10
2022-08-09T16:51:13.784Z,35.00
2022-08-09T16:54:16.543Z,34.60
2022-08-09T16:56:32.458Z,34.50
2022-08-09T16:59:01.031Z,34.40
2022-08-09T17:01:29.011Z,34.30
2022-08-09T17:04:01.119Z,34.20
2022-08-09T17:06:31.631Z,34.10
2022-08-09T17:09:17.601Z,33.90
2022-08-09T17:11:51.312Z,33.70
2022-08-09T17:14:28.028Z,33.50
2022-08-09T17:16:59.393Z,33.40
2022-08-09T17:19:27.834Z,33.10
2022-08-09T17:22:14.645Z,32.90
2022-08-09T17:24:47.493Z,32.80
2022-08-09T17:27:21.988Z,32.60
2022-08-09T17:29:49.981Z,32.60
2022-08-09T17:32:20.478Z,32.60
2022-08-09T17:35:01.469Z,32.40
2022-08-09T17:38:02.133Z,32.30
2022-08-09T17:40:21.988Z,32.30
2022-08-09T17:43:03.115Z,32.20
2022-08-09T17:46:04.184Z,32.10
2022-08-09T17:48:29.428Z,32.10
2022-08-09T17:51:01.747Z,32.00
2022-08-09T17:53:43.198Z,31.70
2022-08-09T17:56:18.095Z,31.40
2022-08-09T17:58:45.396Z,31.20
2022-08-09T18:01:22.298Z,31.00
2022-08-09T18:03:51.512Z,30.80
2022-08-09T18:06:31.079Z,30.60
2022-08-09T18:09:01.042Z,30.50
2022-08-09T18:11:27.811Z,30.50
2022-08-09T18:14:00.530Z,30.40
2022-08-09T18:16:32.952Z,30.30
2022-08-09T18:19:04.235Z,30.10
2022-08-09T18:21:47.126Z,30.00
2022-08-09T18:24:17.395Z,29.90
2022-08-09T18:26:46.333Z,29.80
2022-08-09T18:30:42.690Z,29.60
2022-08-09T18:32:03.261Z,29.50
2022-08-09T18:34:31.814Z,29.40
2022-08-09T18:36:58.769Z,29.20
2022-08-09T18:39:31.947Z,29.20
2022-08-09T18:42:00.749Z,29.10
2022-08-09T18:44:27.877Z,29.10
2022-08-09T18:47:08.490Z,29.10
2022-08-09T18:49:43.573Z,29.10
2022-08-09T18:52:15.745Z,29.00
2022-08-09T18:54:52.613Z,29.00
2022-08-09T18:57:22.266Z,29.00
2022-08-09T18:59:54.527Z,28.90
2022-08-09T19:02:30.543Z,28.80
2022-08-09T19:05:04.160Z,28.70
2022-08-09T19:07:42.103Z,28.60
2022-08-09T19:10:26.812Z,28.50
2022-08-09T19:12:59.932Z,28.50
2022-08-09T19:15:41.266Z,28.40
2022-08-09T19:18:17.162Z,28.30
2022-08-09T19:20:56.950Z,28.30
2022-08-09T19:24:35.865Z,28.20
2022-08-09T19:26:13.771Z,28.10
2022-08-09T19:28:42.641Z,28.10
2022-08-09T19:31:16.769Z,28.00
2022-08-09T19:33:43.794Z,28.00
2022-08-09T19:36:11.874Z,27.90
2022-08-09T19:38:40.364Z,27.90
2022-08-09T19:41:07.125Z,27.80
2022-08-09T19:44:01.045Z,27.80
2022-08-09T19:46:34.145Z,27.70
2022-08-09T19:50:10.286Z,27.70
2022-08-09T19:51:55.314Z,27.60
2022-08-09T19:54:23.768Z,27.50
2022-08-09T19:56:52.178Z,27.50
2022-08-09T19:59:57.214Z,27.50
2022-08-09T20:02:18.089Z,27.40
2022-08-09T20:04:54.993Z,27.30
2022-08-09T20:07:22.744Z,27.20
2022-08-09T20:09:50.031Z,27.20
2022-08-09T20:12:37.737Z,27.10
2022-08-09T20:16:31.761Z,27.10
2022-08-09T20:17:54.714Z,27.00
2022-08-09T20:20:22.099Z,26.90
2022-08-09T20:22:51.557Z,26.90
2022-08-09T20:25:23.502Z,26.90
2022-08-09T20:27:51.071Z,26.80
2022-08-09T20:30:21.715Z,26.80
2022-08-09T20:32:52.281Z,26.70
2022-08-09T20:35:20.118Z,26.70
2022-08-09T20:38:22.599Z,26.60
2022-08-09T20:40:33.895Z,26.50
2022-08-09T20:43:18.731Z,26.50
2022-08-09T20:45:57.162Z,26.40
2022-08-09T20:48:25.858Z,26.30
2022-08-09T20:50:57.826Z,26.30
2022-08-09T20:53:37.058Z,26.30
2022-08-09T20:56:20.045Z,26.20
2022-08-09T20:58:49.072Z,26.10
2022-08-09T21:01:35.310Z,26.10
2022-08-09T21:05:49.245Z,26.00
2022-08-09T21:06:51.004Z,26.00
2022-08-09T21:09:25.068Z,25.90
2022-08-09T21:14:34.683Z,25.80
2022-08-09T21:18:11.730Z,25.70
2022-08-09T21:20:17.890Z,25.60
2022-08-09T21:22:41.142Z,25.60
2022-08-09T21:25:26.805Z,25.50
2022-08-09T21:28:04.743Z,25.40
2022-08-09T21:30:34.562Z,25.40
2022-08-09T21:33:07.419Z,25.40
2022-08-09T21:35:40.844Z,25.30
2022-08-09T21:38:18.675Z,25.30
2022-08-09T21:40:58.068Z,25.20
2022-08-09T21:43:31.470Z,25.20
2022-08-09T21:46:13.784Z,25.20
2022-08-09T21:48:42.490Z,25.10
2022-08-09T21:51:16.642Z,25.10
2022-08-09T21:53:54.492Z,25.10
2022-08-09T21:56:43.355Z,25.10
2022-08-09T21:59:09.444Z,25.10
2022-08-09T22:01:59.056Z,25.10
2022-08-09T22:04:23.349Z,25.10
2022-08-09T22:07:10.155Z,25.10
2022-08-09T22:09:43.422Z,25.10
2022-08-09T22:12:18.423Z,25.10
2022-08-09T22:14:45.992Z,25.00
2022-08-09T22:17:13.261Z,25.00
2022-08-09T22:19:59.183Z,25.00
2022-08-09T22:22:27.531Z,24.90
2022-08-09T22:26:04.558Z,24.80
2022-08-09T22:27:41.103Z,24.80
2022-08-09T22:30:09.513Z,24.70
2022-08-09T22:32:36.270Z,24.60
2022-08-09T22:35:06.688Z,24.60
2022-08-09T22:38:06.956Z,24.60
2022-08-09T22:40:35.084Z,24.50
2022-08-09T22:43:12.101Z,24.50
2022-08-09T22:48:11.848Z,24.50
2022-08-09T22:48:36.303Z,24.40
2022-08-09T22:51:10.381Z,24.40
2022-08-09T22:53:58.179Z,24.40
2022-08-09T22:56:31.292Z,24.30
2022-08-09T22:59:00.723Z,24.20
2022-08-09T23:01:28.260Z,24.20
2022-08-09T23:04:04.066Z,24.10
2022-08-09T23:06:51.944Z,24.10
2022-08-09T23:09:18.658Z,24.10
2022-08-09T23:11:45.555Z,24.10
2022-08-09T23:14:17.359Z,24.10
2022-08-09T23:16:44.559Z,24.00
2022-08-09T23:19:11.261Z,24.00
2022-08-09T23:21:38.722Z,24.10
2022-08-09T23:24:07.290Z,24.10
2022-08-09T23:26:38.100Z,24.10
2022-08-09T23:29:05.545Z,24.20
2022-08-09T23:31:32.369Z,24.20
2022-08-09T23:33:59.136Z,24.20
2022-08-09T23:36:26.741Z,24.20
2022-08-09T23:38:53.424Z,24.20
2022-08-09T23:41:28.583Z,24.10
2022-08-09T23:43:59.915Z,24.10
2022-08-09T23:46:27.540Z,24.00
2022-08-09T23:48:54.244Z,24.00
2022-08-09T23:51:21.099Z,23.90
2022-08-09T23:53:49.599Z,23.90
2022-08-09T23:56:52.049Z,23.90
2022-08-09T23:59:06.228Z,23.80
